sensor_id;sensor_type;location;lat;lon;timestamp;P1;durP1;ratioP1;P2;durP2;ratioP2
59846;SDS011;45728;48.788;2.302;2023-04-25T00:00:48;4.50;;;3.58;;
59846;SDS011;45728;48.788;2.302;2023-04-25T00:03:15;4.00;;;3.45;;
59846;SDS011;45728;48.788;2.302;2023-04-25T00:05:43;3.78;;;3.40;;
59846;SDS011;45728;48.788;2.302;2023-04-25T00:08:10;4.55;;;3.67;;
59846;SDS011;45728;48.788;2.302;2023-04-25T00:10:36;4.63;;;3.97;;
59846;SDS011;45728;48.788;2.302;2023-04-25T00:13:02;6.18;;;4.35;;
59846;SDS011;45728;48.788;2.302;2023-04-25T00:15:28;4.93;;;4.43;;
59846;SDS011;45728;48.788;2.302;2023-04-25T00:17:56;4.90;;;4.20;;
59846;SDS011;45728;48.788;2.302;2023-04-25T00:20:22;6.55;;;4.70;;
59846;SDS011;45728;48.788;2.302;2023-04-25T00:22:50;6.47;;;4.50;;
59846;SDS011;45728;48.788;2.302;2023-04-25T00:25:18;5.15;;;4.20;;
59846;SDS011;45728;48.788;2.302;2023-04-25T00:27:44;6.60;;;5.68;;
59846;SDS011;45728;48.788;2.302;2023-04-25T00:30:11;6.38;;;5.25;;
59846;SDS011;45728;48.788;2.302;2023-04-25T00:32:37;6.22;;;5.03;;
59846;SDS011;45728;48.788;2.302;2023-04-25T00:35:03;6.78;;;5.10;;
59846;SDS011;45728;48.788;2.302;2023-04-25T00:37:30;8.95;;;5.43;;
59846;SDS011;45728;48.788;2.302;2023-04-25T00:39:57;6.47;;;5.03;;
59846;SDS011;45728;48.788;2.302;2023-04-25T00:42:24;7.07;;;4.40;;
59846;SDS011;45728;48.788;2.302;2023-04-25T00:44:51;10.77;;;5.68;;
59846;SDS011;45728;48.788;2.302;2023-04-25T00:47:18;7.53;;;5.97;;
59846;SDS011;45728;48.788;2.302;2023-04-25T00:49:44;10.57;;;6.00;;
59846;SDS011;45728;48.788;2.302;2023-04-25T00:52:10;5.93;;;5.30;;
59846;SDS011;45728;48.788;2.302;2023-04-25T00:54:36;8.68;;;5.75;;
59846;SDS011;45728;48.788;2.302;2023-04-25T00:57:03;8.32;;;6.07;;
59846;SDS011;45728;48.788;2.302;2023-04-25T00:59:29;7.45;;;5.65;;
59846;SDS011;45728;48.788;2.302;2023-04-25T01:01:56;6.90;;;5.78;;
59846;SDS011;45728;48.788;2.302;2023-04-25T01:04:23;6.63;;;5.80;;
59846;SDS011;45728;48.788;2.302;2023-04-25T01:06:49;8.93;;;6.10;;
59846;SDS011;45728;48.788;2.302;2023-04-25T01:09:15;7.78;;;5.88;;
59846;SDS011;45728;48.788;2.302;2023-04-25T01:11:41;9.32;;;6.13;;
59846;SDS011;45728;48.788;2.302;2023-04-25T01:14:07;7.88;;;6.03;;
59846;SDS011;45728;48.788;2.302;2023-04-25T01:16:33;6.53;;;5.78;;
59846;SDS011;45728;48.788;2.302;2023-04-25T01:19:00;7.72;;;6.85;;
59846;SDS011;45728;48.788;2.302;2023-04-25T01:21:26;11.23;;;6.65;;
59846;SDS011;45728;48.788;2.302;2023-04-25T01:23:55;8.75;;;6.32;;
59846;SDS011;45728;48.788;2.302;2023-04-25T01:26:22;7.95;;;5.70;;
59846;SDS011;45728;48.788;2.302;2023-04-25T01:28:49;9.25;;;6.43;;
59846;SDS011;45728;48.788;2.302;2023-04-25T01:31:15;14.10;;;6.45;;
59846;SDS011;45728;48.788;2.302;2023-04-25T01:33:43;9.48;;;5.85;;
59846;SDS011;45728;48.788;2.302;2023-04-25T01:36:10;9.85;;;6.05;;
59846;SDS011;45728;48.788;2.302;2023-04-25T01:38:36;14.00;;;5.88;;
59846;SDS011;45728;48.788;2.302;2023-04-25T01:41:02;9.60;;;6.10;;
59846;SDS011;45728;48.788;2.302;2023-04-25T01:43:28;12.32;;;5.50;;
59846;SDS011;45728;48.788;2.302;2023-04-25T01:45:55;11.10;;;5.38;;
59846;SDS011;45728;48.788;2.302;2023-04-25T01:48:22;11.18;;;5.70;;
59846;SDS011;45728;48.788;2.302;2023-04-25T01:50:48;11.35;;;6.13;;
59846;SDS011;45728;48.788;2.302;2023-04-25T01:53:14;11.52;;;6.13;;
59846;SDS011;45728;48.788;2.302;2023-04-25T01:55:40;11.98;;;5.90;;
59846;SDS011;45728;48.788;2.302;2023-04-25T01:58:06;11.20;;;5.60;;
59846;SDS011;45728;48.788;2.302;2023-04-25T02:00:35;15.02;;;6.53;;
59846;SDS011;45728;48.788;2.302;2023-04-25T02:03:06;10.93;;;5.70;;
59846;SDS011;45728;48.788;2.302;2023-04-25T02:05:35;9.68;;;5.80;;
59846;SDS011;45728;48.788;2.302;2023-04-25T02:08:04;11.40;;;6.10;;
59846;SDS011;45728;48.788;2.302;2023-04-25T02:10:31;13.18;;;6.22;;
59846;SDS011;45728;48.788;2.302;2023-04-25T02:12:58;13.85;;;7.35;;
59846;SDS011;45728;48.788;2.302;2023-04-25T02:15:24;12.35;;;6.55;;
59846;SDS011;45728;48.788;2.302;2023-04-25T02:17:50;12.93;;;6.70;;
59846;SDS011;45728;48.788;2.302;2023-04-25T02:20:18;13.18;;;5.97;;
59846;SDS011;45728;48.788;2.302;2023-04-25T02:22:48;13.32;;;6.45;;
59846;SDS011;45728;48.788;2.302;2023-04-25T02:25:14;12.02;;;6.03;;
59846;SDS011;45728;48.788;2.302;2023-04-25T02:27:42;17.15;;;7.15;;
59846;SDS011;45728;48.788;2.302;2023-04-25T02:30:08;10.80;;;5.95;;
59846;SDS011;45728;48.788;2.302;2023-04-25T02:32:35;11.82;;;6.40;;
59846;SDS011;45728;48.788;2.302;2023-04-25T02:35:01;10.07;;;6.53;;
59846;SDS011;45728;48.788;2.302;2023-04-25T02:37:30;14.65;;;6.30;;
59846;SDS011;45728;48.788;2.302;2023-04-25T02:39:57;15.02;;;7.35;;
59846;SDS011;45728;48.788;2.302;2023-04-25T02:42:23;13.98;;;6.60;;
59846;SDS011;45728;48.788;2.302;2023-04-25T02:44:49;14.52;;;7.40;;
59846;SDS011;45728;48.788;2.302;2023-04-25T02:47:15;14.68;;;7.25;;
59846;SDS011;45728;48.788;2.302;2023-04-25T02:49:41;14.93;;;7.05;;
59846;SDS011;45728;48.788;2.302;2023-04-25T02:52:07;14.93;;;7.53;;
59846;SDS011;45728;48.788;2.302;2023-04-25T02:54:34;15.45;;;7.15;;
59846;SDS011;45728;48.788;2.302;2023-04-25T02:57:00;13.55;;;7.80;;
59846;SDS011;45728;48.788;2.302;2023-04-25T02:59:28;17.25;;;8.30;;
59846;SDS011;45728;48.788;2.302;2023-04-25T03:01:54;19.17;;;8.95;;
59846;SDS011;45728;48.788;2.302;2023-04-25T03:04:20;14.00;;;7.82;;
59846;SDS011;45728;48.788;2.302;2023-04-25T03:06:49;17.17;;;8.23;;
59846;SDS011;45728;48.788;2.302;2023-04-25T03:09:16;15.20;;;8.07;;
59846;SDS011;45728;48.788;2.302;2023-04-25T03:11:42;14.93;;;7.75;;
59846;SDS011;45728;48.788;2.302;2023-04-25T03:14:09;15.25;;;7.63;;
59846;SDS011;45728;48.788;2.302;2023-04-25T03:16:35;14.85;;;7.95;;
59846;SDS011;45728;48.788;2.302;2023-04-25T03:19:02;17.95;;;8.27;;
59846;SDS011;45728;48.788;2.302;2023-04-25T03:21:28;15.60;;;8.43;;
59846;SDS011;45728;48.788;2.302;2023-04-25T03:23:57;15.35;;;7.50;;
59846;SDS011;45728;48.788;2.302;2023-04-25T03:26:24;16.73;;;8.32;;
59846;SDS011;45728;48.788;2.302;2023-04-25T03:28:50;13.75;;;7.55;;
59846;SDS011;45728;48.788;2.302;2023-04-25T03:31:16;16.38;;;7.78;;
59846;SDS011;45728;48.788;2.302;2023-04-25T03:33:42;15.70;;;7.40;;
59846;SDS011;45728;48.788;2.302;2023-04-25T03:36:08;16.75;;;8.00;;
59846;SDS011;45728;48.788;2.302;2023-04-25T03:38:35;13.15;;;7.93;;
59846;SDS011;45728;48.788;2.302;2023-04-25T03:41:01;15.68;;;8.27;;
59846;SDS011;45728;48.788;2.302;2023-04-25T03:43:28;24.75;;;8.45;;
59846;SDS011;45728;48.788;2.302;2023-04-25T03:45:54;17.83;;;8.10;;
59846;SDS011;45728;48.788;2.302;2023-04-25T03:48:20;17.52;;;8.55;;
59846;SDS011;45728;48.788;2.302;2023-04-25T03:50:47;14.63;;;8.65;;
59846;SDS011;45728;48.788;2.302;2023-04-25T03:53:13;20.15;;;8.98;;
59846;SDS011;45728;48.788;2.302;2023-04-25T03:55:39;16.38;;;8.68;;
59846;SDS011;45728;48.788;2.302;2023-04-25T03:58:06;16.23;;;9.07;;
59846;SDS011;45728;48.788;2.302;2023-04-25T04:00:33;15.60;;;8.38;;
59846;SDS011;45728;48.788;2.302;2023-04-25T04:03:00;15.68;;;8.93;;
59846;SDS011;45728;48.788;2.302;2023-04-25T04:05:26;15.70;;;9.18;;
59846;SDS011;45728;48.788;2.302;2023-04-25T04:07:53;18.40;;;8.98;;
59846;SDS011;45728;48.788;2.302;2023-04-25T04:10:19;18.58;;;9.13;;
59846;SDS011;45728;48.788;2.302;2023-04-25T04:12:45;19.58;;;8.85;;
59846;SDS011;45728;48.788;2.302;2023-04-25T04:15:11;19.08;;;9.18;;
59846;SDS011;45728;48.788;2.302;2023-04-25T04:17:38;16.92;;;9.00;;
59846;SDS011;45728;48.788;2.302;2023-04-25T04:20:04;20.15;;;9.60;;
59846;SDS011;45728;48.788;2.302;2023-04-25T04:22:31;21.40;;;8.75;;
59846;SDS011;45728;48.788;2.302;2023-04-25T04:24:57;16.20;;;8.73;;
59846;SDS011;45728;48.788;2.302;2023-04-25T04:27:23;16.13;;;9.48;;
59846;SDS011;45728;48.788;2.302;2023-04-25T04:29:49;13.07;;;8.20;;
59846;SDS011;45728;48.788;2.302;2023-04-25T04:32:17;17.75;;;9.32;;
59846;SDS011;45728;48.788;2.302;2023-04-25T04:34:43;16.30;;;9.00;;
59846;SDS011;45728;48.788;2.302;2023-04-25T04:37:10;16.20;;;8.75;;
59846;SDS011;45728;48.788;2.302;2023-04-25T04:39:38;17.55;;;8.48;;
59846;SDS011;45728;48.788;2.302;2023-04-25T04:42:05;17.67;;;8.85;;
59846;SDS011;45728;48.788;2.302;2023-04-25T04:44:31;14.23;;;8.80;;
59846;SDS011;45728;48.788;2.302;2023-04-25T04:49:27;19.90;;;9.55;;
59846;SDS011;45728;48.788;2.302;2023-04-25T04:51:53;17.65;;;9.88;;
59846;SDS011;45728;48.788;2.302;2023-04-25T04:54:20;20.52;;;10.15;;
59846;SDS011;45728;48.788;2.302;2023-04-25T04:56:46;17.00;;;9.75;;
59846;SDS011;45728;48.788;2.302;2023-04-25T04:59:12;18.00;;;9.73;;
59846;SDS011;45728;48.788;2.302;2023-04-25T05:01:38;19.70;;;10.93;;
59846;SDS011;45728;48.788;2.302;2023-04-25T05:04:04;15.85;;;10.18;;
59846;SDS011;45728;48.788;2.302;2023-04-25T05:06:31;19.08;;;10.70;;
59846;SDS011;45728;48.788;2.302;2023-04-25T05:08:57;16.35;;;10.10;;
59846;SDS011;45728;48.788;2.302;2023-04-25T05:11:24;17.13;;;10.57;;
59846;SDS011;45728;48.788;2.302;2023-04-25T05:13:53;19.77;;;10.88;;
59846;SDS011;45728;48.788;2.302;2023-04-25T05:16:20;16.23;;;10.07;;
59846;SDS011;45728;48.788;2.302;2023-04-25T05:18:46;19.45;;;10.52;;
59846;SDS011;45728;48.788;2.302;2023-04-25T05:21:13;18.52;;;10.80;;
59846;SDS011;45728;48.788;2.302;2023-04-25T05:23:39;23.05;;;10.43;;
59846;SDS011;45728;48.788;2.302;2023-04-25T05:26:05;17.27;;;10.07;;
59846;SDS011;45728;48.788;2.302;2023-04-25T05:28:31;18.02;;;10.73;;
59846;SDS011;45728;48.788;2.302;2023-04-25T05:30:57;16.45;;;10.65;;
59846;SDS011;45728;48.788;2.302;2023-04-25T05:33:23;17.58;;;10.85;;
59846;SDS011;45728;48.788;2.302;2023-04-25T05:35:49;14.75;;;10.57;;
59846;SDS011;45728;48.788;2.302;2023-04-25T05:38:16;18.02;;;10.65;;
59846;SDS011;45728;48.788;2.302;2023-04-25T05:40:42;18.13;;;10.60;;
59846;SDS011;45728;48.788;2.302;2023-04-25T05:43:08;19.88;;;12.50;;
59846;SDS011;45728;48.788;2.302;2023-04-25T05:45:34;18.20;;;10.75;;
59846;SDS011;45728;48.788;2.302;2023-04-25T05:48:00;21.48;;;12.45;;
59846;SDS011;45728;48.788;2.302;2023-04-25T05:50:26;16.85;;;11.68;;
59846;SDS011;45728;48.788;2.302;2023-04-25T05:52:52;20.45;;;11.75;;
59846;SDS011;45728;48.788;2.302;2023-04-25T05:55:18;18.48;;;12.05;;
59846;SDS011;45728;48.788;2.302;2023-04-25T05:57:44;17.50;;;11.80;;
59846;SDS011;45728;48.788;2.302;2023-04-25T06:00:13;18.88;;;12.00;;
59846;SDS011;45728;48.788;2.302;2023-04-25T06:02:41;18.73;;;13.25;;
59846;SDS011;45728;48.788;2.302;2023-04-25T06:05:08;20.38;;;12.65;;
59846;SDS011;45728;48.788;2.302;2023-04-25T06:07:34;17.88;;;12.48;;
59846;SDS011;45728;48.788;2.302;2023-04-25T06:10:00;25.48;;;14.13;;
59846;SDS011;45728;48.788;2.302;2023-04-25T06:12:26;22.13;;;13.25;;
59846;SDS011;45728;48.788;2.302;2023-04-25T06:14:52;25.67;;;13.85;;
59846;SDS011;45728;48.788;2.302;2023-04-25T06:17:18;21.92;;;12.48;;
59846;SDS011;45728;48.788;2.302;2023-04-25T06:19:44;19.65;;;13.35;;
59846;SDS011;45728;48.788;2.302;2023-04-25T06:22:10;19.52;;;13.30;;
59846;SDS011;45728;48.788;2.302;2023-04-25T06:24:36;21.88;;;12.88;;
59846;SDS011;45728;48.788;2.302;2023-04-25T06:27:02;20.27;;;13.15;;
59846;SDS011;45728;48.788;2.302;2023-04-25T06:29:28;19.30;;;12.93;;
59846;SDS011;45728;48.788;2.302;2023-04-25T06:31:54;20.63;;;13.23;;
59846;SDS011;45728;48.788;2.302;2023-04-25T06:34:20;19.90;;;12.88;;
59846;SDS011;45728;48.788;2.302;2023-04-25T06:36:47;23.05;;;13.68;;
59846;SDS011;45728;48.788;2.302;2023-04-25T06:39:13;21.73;;;12.98;;
59846;SDS011;45728;48.788;2.302;2023-04-25T06:41:39;21.33;;;12.75;;
59846;SDS011;45728;48.788;2.302;2023-04-25T06:44:05;19.88;;;13.25;;
59846;SDS011;45728;48.788;2.302;2023-04-25T06:46:31;20.80;;;12.95;;
59846;SDS011;45728;48.788;2.302;2023-04-25T06:48:57;18.33;;;13.20;;
59846;SDS011;45728;48.788;2.302;2023-04-25T06:51:23;21.92;;;12.90;;
59846;SDS011;45728;48.788;2.302;2023-04-25T06:53:49;21.25;;;12.35;;
59846;SDS011;45728;48.788;2.302;2023-04-25T06:56:15;21.80;;;13.23;;
59846;SDS011;45728;48.788;2.302;2023-04-25T06:58:42;19.48;;;13.05;;
59846;SDS011;45728;48.788;2.302;2023-04-25T07:01:08;21.90;;;12.18;;
59846;SDS011;45728;48.788;2.302;2023-04-25T07:03:34;18.20;;;11.90;;
59846;SDS011;45728;48.788;2.302;2023-04-25T07:06:00;41.08;;;15.45;;
59846;SDS011;45728;48.788;2.302;2023-04-25T07:08:26;16.40;;;10.32;;
59846;SDS011;45728;48.788;2.302;2023-04-25T07:10:52;14.10;;;10.25;;
59846;SDS011;45728;48.788;2.302;2023-04-25T07:13:18;13.95;;;9.75;;
59846;SDS011;45728;48.788;2.302;2023-04-25T07:15:44;14.75;;;9.50;;
59846;SDS011;45728;48.788;2.302;2023-04-25T07:18:10;14.98;;;7.88;;
59846;SDS011;45728;48.788;2.302;2023-04-25T07:20:36;11.35;;;7.78;;
59846;SDS011;45728;48.788;2.302;2023-04-25T07:23:02;12.43;;;8.80;;
59846;SDS011;45728;48.788;2.302;2023-04-25T07:25:28;18.98;;;9.02;;
59846;SDS011;45728;48.788;2.302;2023-04-25T07:28:13;15.82;;;9.80;;
59846;SDS011;45728;48.788;2.302;2023-04-25T07:30:39;12.18;;;9.98;;
59846;SDS011;45728;48.788;2.302;2023-04-25T07:33:05;13.10;;;10.55;;
59846;SDS011;45728;48.788;2.302;2023-04-25T07:35:31;14.27;;;12.07;;
59846;SDS011;45728;48.788;2.302;2023-04-25T07:37:57;16.45;;;12.70;;
59846;SDS011;45728;48.788;2.302;2023-04-25T07:40:24;18.25;;;13.95;;
59846;SDS011;45728;48.788;2.302;2023-04-25T07:42:50;16.13;;;14.07;;
59846;SDS011;45728;48.788;2.302;2023-04-25T07:45:16;15.32;;;13.27;;
59846;SDS011;45728;48.788;2.302;2023-04-25T07:47:42;23.70;;;15.63;;
59846;SDS011;45728;48.788;2.302;2023-04-25T07:50:08;18.02;;;14.43;;
59846;SDS011;45728;48.788;2.302;2023-04-25T07:52:36;20.90;;;16.85;;
59846;SDS011;45728;48.788;2.302;2023-04-25T07:55:02;24.83;;;17.65;;
59846;SDS011;45728;48.788;2.302;2023-04-25T07:57:29;25.60;;;17.35;;
59846;SDS011;45728;48.788;2.302;2023-04-25T07:59:55;27.88;;;18.33;;
59846;SDS011;45728;48.788;2.302;2023-04-25T08:02:21;28.38;;;17.67;;
59846;SDS011;45728;48.788;2.302;2023-04-25T08:04:47;23.13;;;17.98;;
59846;SDS011;45728;48.788;2.302;2023-04-25T08:07:14;31.52;;;17.85;;
59846;SDS011;45728;48.788;2.302;2023-04-25T08:09:41;25.77;;;18.63;;
59846;SDS011;45728;48.788;2.302;2023-04-25T08:12:07;27.58;;;17.55;;
59846;SDS011;45728;48.788;2.302;2023-04-25T08:14:33;25.70;;;17.10;;
59846;SDS011;45728;48.788;2.302;2023-04-25T08:17:05;26.00;;;17.33;;
59846;SDS011;45728;48.788;2.302;2023-04-25T08:19:31;22.50;;;16.35;;
59846;SDS011;45728;48.788;2.302;2023-04-25T08:21:57;21.95;;;16.40;;
59846;SDS011;45728;48.788;2.302;2023-04-25T08:24:23;26.80;;;15.70;;
59846;SDS011;45728;48.788;2.302;2023-04-25T08:26:49;24.75;;;15.93;;
59846;SDS011;45728;48.788;2.302;2023-04-25T08:29:17;24.58;;;14.93;;
59846;SDS011;45728;48.788;2.302;2023-04-25T08:31:43;24.88;;;15.23;;
59846;SDS011;45728;48.788;2.302;2023-04-25T08:34:09;28.42;;;14.75;;
59846;SDS011;45728;48.788;2.302;2023-04-25T08:36:36;24.70;;;14.68;;
59846;SDS011;45728;48.788;2.302;2023-04-25T08:39:03;27.33;;;14.73;;
59846;SDS011;45728;48.788;2.302;2023-04-25T08:41:29;20.40;;;12.95;;
59846;SDS011;45728;48.788;2.302;2023-04-25T08:43:55;23.13;;;12.90;;
59846;SDS011;45728;48.788;2.302;2023-04-25T08:46:22;21.02;;;12.93;;
59846;SDS011;45728;48.788;2.302;2023-04-25T08:48:49;20.63;;;12.75;;
59846;SDS011;45728;48.788;2.302;2023-04-25T08:51:21;21.30;;;13.30;;
59846;SDS011;45728;48.788;2.302;2023-04-25T08:53:51;18.02;;;12.13;;
59846;SDS011;45728;48.788;2.302;2023-04-25T08:56:18;16.10;;;10.82;;
59846;SDS011;45728;48.788;2.302;2023-04-25T08:58:48;17.27;;;11.55;;
59846;SDS011;45728;48.788;2.302;2023-04-25T09:01:15;14.13;;;9.80;;
59846;SDS011;45728;48.788;2.302;2023-04-25T09:03:43;19.48;;;10.80;;
59846;SDS011;45728;48.788;2.302;2023-04-25T09:06:10;19.25;;;12.30;;
59846;SDS011;45728;48.788;2.302;2023-04-25T09:08:37;20.15;;;12.65;;
59846;SDS011;45728;48.788;2.302;2023-04-25T09:11:06;18.90;;;12.27;;
59846;SDS011;45728;48.788;2.302;2023-04-25T09:13:33;19.27;;;12.68;;
59846;SDS011;45728;48.788;2.302;2023-04-25T09:15:59;21.52;;;13.60;;
59846;SDS011;45728;48.788;2.302;2023-04-25T09:18:26;22.90;;;12.27;;
59846;SDS011;45728;48.788;2.302;2023-04-25T09:21:04;18.67;;;12.30;;
59846;SDS011;45728;48.788;2.302;2023-04-25T09:23:47;19.35;;;12.52;;
59846;SDS011;45728;48.788;2.302;2023-04-25T09:26:14;20.92;;;11.35;;
59846;SDS011;45728;48.788;2.302;2023-04-25T09:28:42;20.63;;;10.65;;
59846;SDS011;45728;48.788;2.302;2023-04-25T09:31:11;19.85;;;11.73;;
59846;SDS011;45728;48.788;2.302;2023-04-25T09:33:37;21.30;;;12.73;;
59846;SDS011;45728;48.788;2.302;2023-04-25T09:36:04;23.35;;;12.23;;
59846;SDS011;45728;48.788;2.302;2023-04-25T09:38:36;18.90;;;11.55;;
59846;SDS011;45728;48.788;2.302;2023-04-25T09:41:12;17.30;;;11.02;;
59846;SDS011;45728;48.788;2.302;2023-04-25T09:43:38;17.10;;;11.18;;
59846;SDS011;45728;48.788;2.302;2023-04-25T09:46:10;18.25;;;11.00;;
59846;SDS011;45728;48.788;2.302;2023-04-25T09:48:37;19.50;;;11.65;;
59846;SDS011;45728;48.788;2.302;2023-04-25T09:51:13;22.58;;;11.88;;
59846;SDS011;45728;48.788;2.302;2023-04-25T09:53:43;16.55;;;10.57;;
59846;SDS011;45728;48.788;2.302;2023-04-25T09:56:19;16.92;;;10.48;;
59846;SDS011;45728;48.788;2.302;2023-04-25T09:58:47;17.08;;;10.32;;
59846;SDS011;45728;48.788;2.302;2023-04-25T10:01:15;14.15;;;8.77;;
59846;SDS011;45728;48.788;2.302;2023-04-25T10:03:42;13.15;;;8.98;;
59846;SDS011;45728;48.788;2.302;2023-04-25T10:06:14;11.27;;;7.75;;
59846;SDS011;45728;48.788;2.302;2023-04-25T10:08:45;15.10;;;8.40;;
59846;SDS011;45728;48.788;2.302;2023-04-25T10:11:16;13.70;;;8.45;;
59846;SDS011;45728;48.788;2.302;2023-04-25T10:13:43;16.10;;;9.52;;
59846;SDS011;45728;48.788;2.302;2023-04-25T10:16:11;16.90;;;10.30;;
59846;SDS011;45728;48.788;2.302;2023-04-25T10:18:37;12.15;;;9.45;;
59846;SDS011;45728;48.788;2.302;2023-04-25T10:21:04;16.52;;;10.25;;
59846;SDS011;45728;48.788;2.302;2023-04-25T10:23:31;18.80;;;9.35;;
59846;SDS011;45728;48.788;2.302;2023-04-25T10:25:59;15.10;;;8.95;;
59846;SDS011;45728;48.788;2.302;2023-04-25T10:28:26;14.27;;;9.18;;
59846;SDS011;45728;48.788;2.302;2023-04-25T10:30:57;13.43;;;9.00;;
59846;SDS011;45728;48.788;2.302;2023-04-25T10:33:36;15.55;;;8.98;;
59846;SDS011;45728;48.788;2.302;2023-04-25T10:36:10;15.25;;;8.38;;
59846;SDS011;45728;48.788;2.302;2023-04-25T10:38:38;15.18;;;8.43;;
59846;SDS011;45728;48.788;2.302;2023-04-25T10:41:05;14.75;;;8.63;;
59846;SDS011;45728;48.788;2.302;2023-04-25T10:46:16;13.82;;;7.90;;
59846;SDS011;45728;48.788;2.302;2023-04-25T10:48:45;15.35;;;7.90;;
59846;SDS011;45728;48.788;2.302;2023-04-25T10:51:20;13.18;;;8.25;;
59846;SDS011;45728;48.788;2.302;2023-04-25T10:54:12;14.38;;;7.97;;
59846;SDS011;45728;48.788;2.302;2023-04-25T10:56:37;11.73;;;7.70;;
59846;SDS011;45728;48.788;2.302;2023-04-25T10:59:10;17.73;;;9.05;;
59846;SDS011;45728;48.788;2.302;2023-04-25T11:01:40;16.83;;;8.07;;
59846;SDS011;45728;48.788;2.302;2023-04-25T11:04:30;13.60;;;8.55;;
59846;SDS011;45728;48.788;2.302;2023-04-25T11:09:49;16.38;;;7.65;;
59846;SDS011;45728;48.788;2.302;2023-04-25T11:12:15;11.68;;;7.80;;
59846;SDS011;45728;48.788;2.302;2023-04-25T11:14:42;11.50;;;7.30;;
59846;SDS011;45728;48.788;2.302;2023-04-25T11:17:09;15.88;;;8.55;;
59846;SDS011;45728;48.788;2.302;2023-04-25T11:19:36;13.15;;;7.40;;
59846;SDS011;45728;48.788;2.302;2023-04-25T11:22:02;20.48;;;7.82;;
59846;SDS011;45728;48.788;2.302;2023-04-25T11:24:29;13.75;;;6.80;;
59846;SDS011;45728;48.788;2.302;2023-04-25T11:27:00;12.48;;;6.57;;
59846;SDS011;45728;48.788;2.302;2023-04-25T11:29:31;12.98;;;6.55;;
59846;SDS011;45728;48.788;2.302;2023-04-25T11:31:58;11.52;;;6.53;;
59846;SDS011;45728;48.788;2.302;2023-04-25T11:34:26;11.52;;;5.68;;
59846;SDS011;45728;48.788;2.302;2023-04-25T11:39:23;9.82;;;5.47;;
59846;SDS011;45728;48.788;2.302;2023-04-25T11:41:50;11.57;;;6.10;;
59846;SDS011;45728;48.788;2.302;2023-04-25T11:44:17;11.85;;;5.93;;
59846;SDS011;45728;48.788;2.302;2023-04-25T11:46:45;10.90;;;5.95;;
59846;SDS011;45728;48.788;2.302;2023-04-25T11:49:14;9.57;;;6.00;;
59846;SDS011;45728;48.788;2.302;2023-04-25T11:51:41;11.93;;;6.00;;
59846;SDS011;45728;48.788;2.302;2023-04-25T11:54:08;9.20;;;5.70;;
59846;SDS011;45728;48.788;2.302;2023-04-25T11:56:35;9.63;;;5.20;;
59846;SDS011;45728;48.788;2.302;2023-04-25T11:59:02;10.25;;;5.55;;
59846;SDS011;45728;48.788;2.302;2023-04-25T12:01:30;13.02;;;6.00;;
59846;SDS011;45728;48.788;2.302;2023-04-25T12:04:19;10.40;;;6.32;;
59846;SDS011;45728;48.788;2.302;2023-04-25T12:06:48;11.45;;;6.07;;
59846;SDS011;45728;48.788;2.302;2023-04-25T12:09:19;9.20;;;5.57;;
59846;SDS011;45728;48.788;2.302;2023-04-25T12:11:56;10.65;;;5.60;;
59846;SDS011;45728;48.788;2.302;2023-04-25T12:14:25;11.07;;;6.32;;
59846;SDS011;45728;48.788;2.302;2023-04-25T12:16:55;14.20;;;6.20;;
59846;SDS011;45728;48.788;2.302;2023-04-25T12:19:23;9.60;;;5.68;;
59846;SDS011;45728;48.788;2.302;2023-04-25T12:21:49;11.23;;;6.25;;
59846;SDS011;45728;48.788;2.302;2023-04-25T12:24:16;10.90;;;5.78;;
59846;SDS011;45728;48.788;2.302;2023-04-25T12:26:58;10.93;;;5.93;;
59846;SDS011;45728;48.788;2.302;2023-04-25T12:29:26;9.68;;;5.75;;
59846;SDS011;45728;48.788;2.302;2023-04-25T12:31:54;12.48;;;5.70;;
59846;SDS011;45728;48.788;2.302;2023-04-25T12:34:21;11.00;;;5.57;;
59846;SDS011;45728;48.788;2.302;2023-04-25T12:36:48;10.45;;;5.68;;
59846;SDS011;45728;48.788;2.302;2023-04-25T12:39:19;11.48;;;6.05;;
59846;SDS011;45728;48.788;2.302;2023-04-25T12:41:48;9.98;;;5.57;;
59846;SDS011;45728;48.788;2.302;2023-04-25T12:44:14;13.45;;;6.22;;
59846;SDS011;45728;48.788;2.302;2023-04-25T12:46:41;10.40;;;5.22;;
59846;SDS011;45728;48.788;2.302;2023-04-25T12:49:07;12.10;;;6.60;;
59846;SDS011;45728;48.788;2.302;2023-04-25T12:51:34;11.85;;;6.40;;
59846;SDS011;45728;48.788;2.302;2023-04-25T12:54:01;13.95;;;6.70;;
59846;SDS011;45728;48.788;2.302;2023-04-25T12:56:30;13.93;;;6.10;;
59846;SDS011;45728;48.788;2.302;2023-04-25T12:58:57;10.45;;;6.00;;
59846;SDS011;45728;48.788;2.302;2023-04-25T13:01:24;12.02;;;5.93;;
59846;SDS011;45728;48.788;2.302;2023-04-25T13:03:50;12.85;;;5.38;;
59846;SDS011;45728;48.788;2.302;2023-04-25T13:06:17;10.90;;;5.50;;
59846;SDS011;45728;48.788;2.302;2023-04-25T13:08:44;9.45;;;5.50;;
59846;SDS011;45728;48.788;2.302;2023-04-25T13:11:10;15.30;;;6.68;;
59846;SDS011;45728;48.788;2.302;2023-04-25T13:13:37;17.05;;;7.03;;
59846;SDS011;45728;48.788;2.302;2023-04-25T13:16:03;13.80;;;6.82;;
59846;SDS011;45728;48.788;2.302;2023-04-25T13:18:30;14.98;;;6.95;;
59846;SDS011;45728;48.788;2.302;2023-04-25T13:20:57;11.95;;;5.80;;
59846;SDS011;45728;48.788;2.302;2023-04-25T13:23:25;14.10;;;6.40;;
59846;SDS011;45728;48.788;2.302;2023-04-25T13:25:53;10.57;;;6.28;;
59846;SDS011;45728;48.788;2.302;2023-04-25T13:28:20;12.38;;;6.60;;
59846;SDS011;45728;48.788;2.302;2023-04-25T13:30:46;12.60;;;6.40;;
59846;SDS011;45728;48.788;2.302;2023-04-25T13:33:13;13.25;;;6.68;;
59846;SDS011;45728;48.788;2.302;2023-04-25T13:35:40;13.02;;;6.60;;
59846;SDS011;45728;48.788;2.302;2023-04-25T13:38:07;11.88;;;5.63;;
59846;SDS011;45728;48.788;2.302;2023-04-25T13:40:34;14.07;;;6.80;;
59846;SDS011;45728;48.788;2.302;2023-04-25T13:43:01;13.48;;;6.75;;
59846;SDS011;45728;48.788;2.302;2023-04-25T13:45:27;17.48;;;7.07;;
59846;SDS011;45728;48.788;2.302;2023-04-25T13:47:53;14.35;;;6.35;;
59846;SDS011;45728;48.788;2.302;2023-04-25T13:50:19;11.20;;;6.53;;
59846;SDS011;45728;48.788;2.302;2023-04-25T13:52:46;9.55;;;5.07;;
59846;SDS011;45728;48.788;2.302;2023-04-25T13:55:12;12.13;;;5.88;;
59846;SDS011;45728;48.788;2.302;2023-04-25T13:57:38;9.13;;;5.88;;
59846;SDS011;45728;48.788;2.302;2023-04-25T14:00:04;11.75;;;5.40;;
59846;SDS011;45728;48.788;2.302;2023-04-25T14:02:37;12.82;;;6.13;;
59846;SDS011;45728;48.788;2.302;2023-04-25T14:05:03;10.68;;;5.65;;
59846;SDS011;45728;48.788;2.302;2023-04-25T14:07:30;11.60;;;5.80;;
59846;SDS011;45728;48.788;2.302;2023-04-25T14:09:57;10.00;;;5.32;;
59846;SDS011;45728;48.788;2.302;2023-04-25T14:12:23;12.95;;;6.13;;
59846;SDS011;45728;48.788;2.302;2023-04-25T14:14:49;12.88;;;5.90;;
59846;SDS011;45728;48.788;2.302;2023-04-25T14:17:15;11.30;;;5.95;;
59846;SDS011;45728;48.788;2.302;2023-04-25T14:19:41;11.45;;;5.55;;
59846;SDS011;45728;48.788;2.302;2023-04-25T14:22:09;11.23;;;5.60;;
59846;SDS011;45728;48.788;2.302;2023-04-25T14:24:35;9.48;;;5.30;;
59846;SDS011;45728;48.788;2.302;2023-04-25T14:27:01;12.40;;;6.22;;
59846;SDS011;45728;48.788;2.302;2023-04-25T14:29:28;13.88;;;5.97;;
59846;SDS011;45728;48.788;2.302;2023-04-25T14:31:54;14.52;;;6.18;;
59846;SDS011;45728;48.788;2.302;2023-04-25T14:34:21;11.05;;;5.72;;
59846;SDS011;45728;48.788;2.302;2023-04-25T14:36:47;10.32;;;5.45;;
59846;SDS011;45728;48.788;2.302;2023-04-25T14:39:13;9.77;;;5.05;;
59846;SDS011;45728;48.788;2.302;2023-04-25T14:41:40;10.23;;;5.20;;
59846;SDS011;45728;48.788;2.302;2023-04-25T14:44:06;10.57;;;5.53;;